createdAt,value
2023-02-23T00:01:30.233Z,15.70
2023-02-23T00:03:59.066Z,21.60
2023-02-23T00:06:28.420Z,22.00
2023-02-23T00:08:55.879Z,27.50
2023-02-23T00:11:23.031Z,24.50
2023-02-23T00:13:51.264Z,18.80
2023-02-23T00:16:21.717Z,18.10
2023-02-23T00:18:53.612Z,14.40
2023-02-23T00:21:30.019Z,14.40
2023-02-23T00:24:01.791Z,13.70
2023-02-23T00:26:33.946Z,14.50
2023-02-23T00:29:02.983Z,15.90
2023-02-23T00:31:30.315Z,14.20
2023-02-23T00:34:03.221Z,14.50
2023-02-23T00:36:35.009Z,16.00
2023-02-23T00:39:17.571Z,16.30
2023-02-23T00:41:45.680Z,17.00
2023-02-23T00:44:15.920Z,14.80
2023-02-23T00:46:44.660Z,12.80
2023-02-23T00:49:13.499Z,15.10
2023-02-23T00:51:41.805Z,15.20
2023-02-23T00:54:11.738Z,16.50
2023-02-23T00:56:39.889Z,17.30
2023-02-23T00:59:07.565Z,17.70
2023-02-23T01:01:35.235Z,16.30
2023-02-23T01:04:02.541Z,14.50
2023-02-23T01:06:30.899Z,13.30
2023-02-23T01:08:58.305Z,13.30
2023-02-23T01:11:29.057Z,14.00
2023-02-23T01:13:58.751Z,16.90
2023-02-23T01:16:29.026Z,13.30
2023-02-23T01:18:59.469Z,14.70
2023-02-23T01:21:29.842Z,11.90
2023-02-23T01:23:57.646Z,10.00
2023-02-23T01:26:36.790Z,10.00
2023-02-23T01:29:08.949Z,9.80
2023-02-23T01:31:38.247Z,9.00
2023-02-23T01:34:06.842Z,10.20
2023-02-23T01:36:36.640Z,11.60
2023-02-23T01:39:07.700Z,12.40
2023-02-23T01:41:36.943Z,9.60
2023-02-23T01:44:28.370Z,9.40
2023-02-23T01:46:56.344Z,10.70
2023-02-23T01:49:26.367Z,12.10
2023-02-23T01:52:00.821Z,13.30
2023-02-23T01:54:33.595Z,15.20
2023-02-23T01:57:03.046Z,14.00
2023-02-23T01:59:35.183Z,13.00
2023-02-23T02:02:05.447Z,13.40
2023-02-23T02:04:44.515Z,14.30
2023-02-23T02:07:29.227Z,14.30
2023-02-23T02:10:13.887Z,14.60
2023-02-23T02:12:55.679Z,15.50
2023-02-23T02:15:28.253Z,13.00
2023-02-23T02:18:30.889Z,13.30
2023-02-23T02:21:40.869Z,15.30
2023-02-23T02:24:26.732Z,14.00
2023-02-23T02:27:13.702Z,11.70
2023-02-23T02:30:14.079Z,11.90
2023-02-23T02:33:04.165Z,12.00
2023-02-23T02:36:01.706Z,11.00
2023-02-23T02:38:53.966Z,11.10
2023-02-23T02:41:25.913Z,12.10
2023-02-23T02:44:11.855Z,13.00
2023-02-23T02:46:45.172Z,13.30
2023-02-23T02:49:15.325Z,13.20
2023-02-23T02:52:00.824Z,12.20
2023-02-23T02:54:42.365Z,12.90
2023-02-23T02:57:12.255Z,13.00
2023-02-23T03:00:06.949Z,14.80
2023-02-23T03:02:56.937Z,20.60
2023-02-23T03:05:49.497Z,15.40
2023-02-23T03:09:00.120Z,12.50
2023-02-23T03:11:56.516Z,13.30
2023-02-23T03:14:59.567Z,14.50
2023-02-23T03:18:06.847Z,15.20
2023-02-23T03:20:52.924Z,13.30
2023-02-23T03:26:33.458Z,13.10
2023-02-23T03:29:30.507Z,13.70
2023-02-23T03:32:37.911Z,14.40
2023-02-23T03:35:51.343Z,14.20
2023-02-23T03:38:51.793Z,15.50
2023-02-23T03:41:40.921Z,16.30
2023-02-23T03:44:34.426Z,15.60
2023-02-23T03:47:24.402Z,16.70
2023-02-23T03:50:12.481Z,15.50
2023-02-23T03:53:05.998Z,18.00
2023-02-23T03:55:54.855Z,18.20
2023-02-23T03:58:47.298Z,17.10
2023-02-23T04:01:35.803Z,22.60
2023-02-23T04:04:23.518Z,20.20
2023-02-23T04:07:10.983Z,21.00
2023-02-23T04:09:56.746Z,23.10
2023-02-23T04:12:52.068Z,21.20
2023-02-23T04:15:28.935Z,19.40
2023-02-23T04:17:56.828Z,28.50
2023-02-23T04:20:25.978Z,29.80
2023-02-23T04:22:53.185Z,22.70
2023-02-23T04:25:23.024Z,43.10
2023-02-23T04:27:50.936Z,34.40
2023-02-23T04:30:20.733Z,30.60
2023-02-23T04:32:48.008Z,41.20
2023-02-23T04:35:15.384Z,57.10
2023-02-23T04:37:42.534Z,65.90
2023-02-23T04:40:10.213Z,49.90
2023-02-23T04:42:40.014Z,41.30
2023-02-23T04:45:08.575Z,42.80
2023-02-23T04:47:35.696Z,50.20
2023-02-23T04:50:03.744Z,58.00
2023-02-23T04:52:31.589Z,59.60
2023-02-23T04:54:58.681Z,59.40
2023-02-23T04:57:27.018Z,52.10
2023-02-23T04:59:54.140Z,46.60
2023-02-23T05:02:21.415Z,49.70
2023-02-23T05:04:48.653Z,34.40
2023-02-23T05:07:15.819Z,35.00
2023-02-23T05:09:42.983Z,22.40
2023-02-23T05:12:10.165Z,22.10
2023-02-23T05:14:37.301Z,14.90
2023-02-23T05:17:04.450Z,16.30
2023-02-23T05:19:31.597Z,19.70
2023-02-23T05:21:58.826Z,16.90
2023-02-23T05:24:26.063Z,18.80
2023-02-23T05:26:53.999Z,17.80
2023-02-23T05:29:21.152Z,18.60
2023-02-23T05:31:48.832Z,21.90
2023-02-23T05:34:17.073Z,14.60
2023-02-23T05:36:44.185Z,13.70
2023-02-23T05:39:11.285Z,13.10
2023-02-23T05:41:38.406Z,14.20
2023-02-23T05:44:05.691Z,12.90
2023-02-23T05:46:32.954Z,13.10
2023-02-23T05:49:01.935Z,13.80
2023-02-23T05:51:31.987Z,14.30
2023-02-23T05:53:58.997Z,13.10
2023-02-23T05:56:26.587Z,14.90
2023-02-23T05:58:58.063Z,12.50
2023-02-23T06:01:27.025Z,11.50
2023-02-23T06:03:54.610Z,11.90
2023-02-23T06:06:22.484Z,13.20
2023-02-23T06:08:49.966Z,24.10
2023-02-23T06:11:17.675Z,14.10
2023-02-23T06:13:44.990Z,14.50
2023-02-23T06:16:12.260Z,13.50
2023-02-23T06:18:39.942Z,11.40
2023-02-23T06:21:07.570Z,11.20
2023-02-23T06:23:34.774Z,13.50
2023-02-23T06:26:01.928Z,12.10
2023-02-23T06:28:29.842Z,13.40
2023-02-23T06:30:57.698Z,17.70
2023-02-23T06:33:25.628Z,18.20
2023-02-23T06:35:54.828Z,17.80
2023-02-23T06:38:22.533Z,12.00
2023-02-23T06:40:49.688Z,11.10
2023-02-23T06:43:16.965Z,15.30
2023-02-23T06:45:44.152Z,31.40
2023-02-23T06:48:11.263Z,14.00
2023-02-23T06:50:38.470Z,13.00
2023-02-23T06:53:06.077Z,24.30
2023-02-23T06:55:33.191Z,14.20
2023-02-23T06:58:00.278Z,15.70
2023-02-23T07:00:27.580Z,13.10
2023-02-23T07:02:54.658Z,89.20
2023-02-23T07:05:21.782Z,41.40
2023-02-23T07:07:48.927Z,26.30
2023-02-23T07:10:16.089Z,16.10
2023-02-23T07:12:43.226Z,21.40
2023-02-23T07:15:10.842Z,24.30
2023-02-23T07:17:38.036Z,20.90
2023-02-23T07:20:05.645Z,20.30
2023-02-23T07:22:34.275Z,15.10
2023-02-23T07:25:01.343Z,19.00
2023-02-23T07:27:28.513Z,15.80
2023-02-23T07:29:55.662Z,20.90
2023-02-23T07:32:23.166Z,20.60
2023-02-23T07:34:52.143Z,18.10
2023-02-23T07:37:21.559Z,18.00
2023-02-23T07:39:48.645Z,14.40
2023-02-23T07:42:15.773Z,17.80
2023-02-23T07:44:42.856Z,39.30
2023-02-23T07:47:11.044Z,25.60
2023-02-23T07:49:38.277Z,21.60
2023-02-23T07:52:05.459Z,28.20
2023-02-23T07:54:32.703Z,18.40
2023-02-23T07:57:00.360Z,15.30
2023-02-23T07:59:27.540Z,19.90
2023-02-23T08:01:54.641Z,22.00
2023-02-23T08:04:21.778Z,22.00
2023-02-23T08:06:48.998Z,31.80
2023-02-23T08:09:16.144Z,17.40
2023-02-23T08:11:43.976Z,18.70
2023-02-23T08:14:11.341Z,14.60
2023-02-23T08:16:38.816Z,15.20
2023-02-23T08:19:05.981Z,16.80
2023-02-23T08:21:32.972Z,15.30
2023-02-23T08:24:00.233Z,19.50
2023-02-23T08:26:27.325Z,19.20
2023-02-23T08:28:55.049Z,17.30
2023-02-23T08:31:24.454Z,18.60
2023-02-23T08:33:53.135Z,43.20
2023-02-23T08:36:23.338Z,19.60
2023-02-23T08:38:50.809Z,27.20
2023-02-23T08:41:18.232Z,18.20
2023-02-23T08:43:45.671Z,16.50
2023-02-23T08:46:13.428Z,16.80
2023-02-23T08:48:40.813Z,20.30
2023-02-23T08:51:08.767Z,19.30
2023-02-23T08:53:36.633Z,16.20
2023-02-23T08:56:07.344Z,24.10
2023-02-23T08:58:36.235Z,15.10
2023-02-23T09:01:03.962Z,15.80
2023-02-23T09:03:33.848Z,16.50
2023-02-23T09:06:22.973Z,17.10
2023-02-23T09:08:50.340Z,21.40
2023-02-23T09:11:17.873Z,20.70
2023-02-23T09:13:45.155Z,18.70
2023-02-23T09:16:13.953Z,33.60
2023-02-23T09:18:41.693Z,29.70
2023-02-23T09:21:19.240Z,21.50
2023-02-23T09:23:48.395Z,15.30
2023-02-23T09:26:18.132Z,18.20
2023-02-23T09:28:46.275Z,25.40
2023-02-23T09:31:18.886Z,21.80
2023-02-23T09:33:46.586Z,18.70
2023-02-23T09:36:16.683Z,19.20
2023-02-23T09:38:46.794Z,17.80
2023-02-23T09:41:28.185Z,14.70
2023-02-23T09:44:22.303Z,16.80
2023-02-23T09:47:13.302Z,20.80
2023-02-23T09:49:45.192Z,34.80
2023-02-23T09:52:19.457Z,23.20
2023-02-23T09:54:47.442Z,17.40
2023-02-23T09:57:20.242Z,17.70
2023-02-23T09:59:47.541Z,13.70
2023-02-23T10:02:34.997Z,16.10
2023-02-23T10:05:05.513Z,13.60
2023-02-23T10:07:47.270Z,10.80
2023-02-23T10:10:24.064Z,12.70
2023-02-23T10:13:12.411Z,8.60
2023-02-23T10:16:21.684Z,11.60
2023-02-23T10:19:04.146Z,13.40
2023-02-23T10:21:38.594Z,11.60
2023-02-23T10:24:13.599Z,8.30
2023-02-23T10:26:54.589Z,10.40
2023-02-23T10:29:33.013Z,12.40
2023-02-23T10:32:05.459Z,12.40
2023-02-23T10:34:32.614Z,12.00
2023-02-23T10:37:06.269Z,12.30
2023-02-23T10:39:34.667Z,12.30
2023-02-23T10:42:07.913Z,12.30
2023-02-23T10:44:35.170Z,12.30
2023-02-23T10:47:08.360Z,10.40
2023-02-23T10:49:43.725Z,12.10
2023-02-23T10:52:13.732Z,10.60
2023-02-23T10:54:51.544Z,12.10
2023-02-23T10:57:31.104Z,14.70
2023-02-23T11:00:01.152Z,15.20
2023-02-23T11:02:31.034Z,17.40
2023-02-23T11:05:00.922Z,9.00
2023-02-23T11:07:31.543Z,10.00
2023-02-23T11:10:00.307Z,13.50
2023-02-23T11:12:36.649Z,13.50
2023-02-23T11:15:50.450Z,14.60
2023-02-23T11:18:23.682Z,15.00
2023-02-23T11:20:52.167Z,13.10
2023-02-23T11:23:29.430Z,10.40
2023-02-23T11:26:03.190Z,13.50
2023-02-23T11:28:41.903Z,13.20
2023-02-23T11:31:16.275Z,12.00
2023-02-23T11:33:44.305Z,10.10
2023-02-23T11:36:27.787Z,9.00
2023-02-23T11:39:30.229Z,9.30
2023-02-23T11:42:15.183Z,9.30
2023-02-23T11:44:42.450Z,11.00
2023-02-23T11:47:19.365Z,8.50
2023-02-23T11:49:48.548Z,12.20
2023-02-23T11:52:22.043Z,11.00
2023-02-23T11:55:12.782Z,7.90
2023-02-23T11:57:39.897Z,15.00
2023-02-23T12:00:22.726Z,27.50
2023-02-23T12:02:58.811Z,19.20
2023-02-23T12:05:33.852Z,30.30
2023-02-23T12:08:11.682Z,30.60
2023-02-23T12:10:52.106Z,14.80
2023-02-23T12:13:27.673Z,23.30
2023-02-23T12:16:17.809Z,17.10
2023-02-23T12:19:06.559Z,15.30
2023-02-23T12:21:53.878Z,19.70
2023-02-23T12:24:36.236Z,15.70
2023-02-23T12:27:23.294Z,19.30
2023-02-23T12:30:13.993Z,16.00
2023-02-23T12:32:41.120Z,15.40
2023-02-23T12:35:16.676Z,16.80
2023-02-23T12:37:50.973Z,24.60
2023-02-23T12:40:30.202Z,12.90
2023-02-23T12:43:11.997Z,19.10
2023-02-23T12:45:49.361Z,13.30
2023-02-23T12:48:35.488Z,12.80
2023-02-23T12:51:09.774Z,15.90
2023-02-23T12:53:42.633Z,15.10
2023-02-23T12:56:19.080Z,13.40
2023-02-23T12:59:17.463Z,25.10
2023-02-23T13:02:03.099Z,28.90
2023-02-23T13:04:55.492Z,17.30
2023-02-23T13:07:41.926Z,26.10
2023-02-23T13:10:30.497Z,20.10
2023-02-23T13:13:06.689Z,19.30
2023-02-23T13:15:52.263Z,17.00
2023-02-23T13:18:26.462Z,18.60
2023-02-23T13:20:56.528Z,18.80
2023-02-23T13:23:35.636Z,18.70
2023-02-23T13:26:30.637Z,18.20
2023-02-23T13:29:08.038Z,13.40
2023-02-23T13:31:41.005Z,13.80
2023-02-23T13:34:40.757Z,16.40
2023-02-23T13:37:11.703Z,17.20
2023-02-23T13:39:49.118Z,25.90
2023-02-23T13:42:19.213Z,17.20
2023-02-23T13:45:28.492Z,17.90
2023-02-23T13:47:55.631Z,26.90
2023-02-23T13:50:42.870Z,16.70
2023-02-23T13:53:32.146Z,14.00
2023-02-23T13:56:07.018Z,17.60
2023-02-23T13:58:35.729Z,19.10
2023-02-23T14:01:17.274Z,14.60
2023-02-23T14:03:54.480Z,13.70
2023-02-23T14:06:25.060Z,20.60
2023-02-23T14:08:59.220Z,19.80
2023-02-23T14:11:46.256Z,21.90
2023-02-23T14:14:42.341Z,44.40
2023-02-23T14:17:15.402Z,21.20
2023-02-23T14:20:06.505Z,16.90
2023-02-23T14:22:35.422Z,18.20
2023-02-23T14:25:34.112Z,23.70
2023-02-23T14:28:49.235Z,24.70
2023-02-23T14:31:21.032Z,17.50
2023-02-23T14:33:49.876Z,17.80
2023-02-23T14:36:26.375Z,25.30
2023-02-23T14:38:53.514Z,21.20
2023-02-23T14:41:30.147Z,17.90
2023-02-23T14:44:27.149Z,14.70
2023-02-23T14:47:15.949Z,17.30
2023-02-23T14:49:55.291Z,26.20
2023-02-23T14:52:24.699Z,18.40
2023-02-23T14:54:52.750Z,20.30
2023-02-23T14:57:25.839Z,19.50
2023-02-23T14:59:58.558Z,23.20
2023-02-23T15:02:28.168Z,22.10
2023-02-23T15:04:56.094Z,23.40
2023-02-23T15:07:28.053Z,22.70
2023-02-23T15:09:57.484Z,25.50
2023-02-23T15:12:28.728Z,23.10
2023-02-23T15:15:10.262Z,20.30
2023-02-23T15:17:41.663Z,21.30
2023-02-23T15:20:16.811Z,21.30
2023-02-23T15:22:48.714Z,18.50
2023-02-23T15:25:20.562Z,20.60
2023-02-23T15:27:48.737Z,23.80
2023-02-23T15:30:31.183Z,19.90
2023-02-23T15:33:11.811Z,16.20
2023-02-23T15:36:28.437Z,16.90
2023-02-23T15:39:00.379Z,17.80
2023-02-23T15:41:33.284Z,17.50
2023-02-23T15:44:14.904Z,17.00
2023-02-23T15:46:44.402Z,24.60
2023-02-23T15:49:19.482Z,17.20
2023-02-23T15:51:51.219Z,24.40
2023-02-23T15:54:27.104Z,25.30
2023-02-23T15:57:02.751Z,21.60
2023-02-23T16:02:00.183Z,28.80
2023-02-23T16:04:33.116Z,22.20
2023-02-23T16:07:07.641Z,16.00
2023-02-23T16:09:39.250Z,14.60
2023-02-23T16:12:17.785Z,19.10
2023-02-23T16:14:55.587Z,21.80
2023-02-23T16:17:44.370Z,26.50
2023-02-23T16:20:26.119Z,48.60
2023-02-23T16:22:55.056Z,53.70
2023-02-23T16:25:26.434Z,32.10
2023-02-23T16:27:59.989Z,52.50
2023-02-23T16:30:32.842Z,44.00
2023-02-23T16:33:20.849Z,35.80
2023-02-23T16:35:51.517Z,34.00
2023-02-23T16:38:28.292Z,44.90
2023-02-23T16:40:55.607Z,25.80
2023-02-23T16:43:23.035Z,25.80
2023-02-23T16:45:50.669Z,21.90
2023-02-23T16:48:18.921Z,23.40
2023-02-23T16:50:46.406Z,30.60
2023-02-23T16:53:13.632Z,33.50
2023-02-23T16:55:47.040Z,45.40
2023-02-23T16:58:19.897Z,25.80
2023-02-23T17:00:48.092Z,21.90
2023-02-23T17:03:21.589Z,30.10
2023-02-23T17:05:48.715Z,29.40
2023-02-23T17:08:15.944Z,20.20
2023-02-23T17:10:46.009Z,24.20
2023-02-23T17:13:23.624Z,18.10
2023-02-23T17:15:53.894Z,124.60
2023-02-23T17:20:57.886Z,20.90
2023-02-23T17:23:27.539Z,30.20
2023-02-23T17:25:58.602Z,124.80
2023-02-23T17:28:25.962Z,75.80
2023-02-23T17:30:54.300Z,53.20
2023-02-23T17:33:21.556Z,33.70
2023-02-23T17:35:48.817Z,25.50
2023-02-23T17:38:16.416Z,26.50
2023-02-23T17:40:44.219Z,23.20
2023-02-23T17:43:11.527Z,28.10
2023-02-23T17:45:38.786Z,23.40
2023-02-23T17:48:06.004Z,26.60
2023-02-23T17:50:33.185Z,30.40
2023-02-23T17:53:00.431Z,24.90
2023-02-23T17:55:27.596Z,23.40
2023-02-23T17:57:54.946Z,29.70
2023-02-23T18:00:22.302Z,34.30
2023-02-23T18:02:49.439Z,60.20
2023-02-23T18:09:50.268Z,35.60
2023-02-23T18:12:19.378Z,44.00
2023-02-23T18:14:47.070Z,29.30
2023-02-23T18:17:15.691Z,45.30
2023-02-23T18:19:45.752Z,22.00
2023-02-23T18:22:14.050Z,35.20
2023-02-23T18:24:42.046Z,57.50
2023-02-23T18:27:09.325Z,32.50
2023-02-23T18:29:36.649Z,30.10
2023-02-23T18:32:07.096Z,25.80
2023-02-23T18:34:35.027Z,31.00
2023-02-23T18:37:03.624Z,21.30
2023-02-23T18:39:32.098Z,19.80
2023-02-23T18:42:00.663Z,18.80
2023-02-23T18:44:28.137Z,15.20
2023-02-23T18:46:55.429Z,19.20
2023-02-23T18:49:24.592Z,26.10
2023-02-23T18:51:51.922Z,22.60
2023-02-23T18:54:19.453Z,25.80
2023-02-23T18:56:48.550Z,29.00
2023-02-23T18:59:15.859Z,31.30
2023-02-23T19:01:45.490Z,25.10
2023-02-23T19:04:13.346Z,33.70
2023-02-23T19:06:43.874Z,24.50
2023-02-23T19:09:14.465Z,31.30
2023-02-23T19:11:42.985Z,48.50
2023-02-23T19:14:16.649Z,52.30
2023-02-23T19:16:45.569Z,52.00
2023-02-23T19:19:13.791Z,41.80
2023-02-23T19:21:41.283Z,57.70
2023-02-23T19:24:08.546Z,43.30
2023-02-23T19:26:37.584Z,37.80
2023-02-23T19:29:05.136Z,21.20
2023-02-23T19:31:32.760Z,28.40
2023-02-23T19:34:03.406Z,23.70
2023-02-23T19:36:31.881Z,23.90
2023-02-23T19:39:06.270Z,24.00
2023-02-23T19:41:34.280Z,36.60
2023-02-23T19:44:01.746Z,25.10
2023-02-23T19:46:29.474Z,23.10
2023-02-23T19:48:57.072Z,21.70
2023-02-23T19:51:24.709Z,44.70
2023-02-23T19:53:55.848Z,26.70
2023-02-23T19:56:28.113Z,25.10
2023-02-23T19:58:57.019Z,30.00
2023-02-23T20:01:27.749Z,25.80
2023-02-23T20:03:55.914Z,17.70
2023-02-23T20:06:30.617Z,23.60
2023-02-23T20:09:00.211Z,21.10
2023-02-23T20:11:28.040Z,20.40
2023-02-23T20:13:56.522Z,21.70
2023-02-23T20:16:29.550Z,21.70
2023-02-23T20:19:00.647Z,23.00
2023-02-23T20:21:30.760Z,25.10
2023-02-23T20:23:59.748Z,29.00
2023-02-23T20:26:30.255Z,26.80
2023-02-23T20:28:58.401Z,38.20
2023-02-23T20:31:29.499Z,32.70
2023-02-23T20:33:59.188Z,25.60
2023-02-23T20:36:26.640Z,24.50
2023-02-23T20:38:53.825Z,43.90
2023-02-23T20:41:21.538Z,43.30
2023-02-23T20:43:49.156Z,33.90
2023-02-23T20:46:17.324Z,30.40
2023-02-23T20:48:44.665Z,28.50
2023-02-23T20:51:18.018Z,25.30
2023-02-23T20:53:48.244Z,33.40
2023-02-23T20:56:17.838Z,25.00
2023-02-23T20:58:46.024Z,24.50
2023-02-23T21:01:20.763Z,26.70
2023-02-23T21:03:51.402Z,23.80
2023-02-23T21:06:23.138Z,29.80
2023-02-23T21:08:51.129Z,27.30
2023-02-23T21:11:20.051Z,28.60
2023-02-23T21:13:47.643Z,31.00
2023-02-23T21:16:17.190Z,26.50
2023-02-23T21:18:44.557Z,30.20
2023-02-23T21:21:14.059Z,26.70
2023-02-23T21:23:45.131Z,27.60
2023-02-23T21:26:16.209Z,21.90
2023-02-23T21:28:45.538Z,23.30
2023-02-23T21:31:14.550Z,24.00
2023-02-23T21:33:43.257Z,23.20
2023-02-23T21:36:11.450Z,27.20
2023-02-23T21:38:40.731Z,24.30
2023-02-23T21:41:08.906Z,24.80
2023-02-23T21:43:37.378Z,23.70
2023-02-23T21:46:12.333Z,23.20
2023-02-23T21:48:39.699Z,22.80
2023-02-23T21:51:11.494Z,24.60
2023-02-23T21:53:39.381Z,19.00
2023-02-23T21:56:15.685Z,18.80
2023-02-23T21:58:55.081Z,26.80
2023-02-23T22:01:29.432Z,30.40
2023-02-23T22:03:57.844Z,28.70
2023-02-23T22:06:28.344Z,26.10
2023-02-23T22:08:56.860Z,23.50
2023-02-23T22:11:26.939Z,25.80
2023-02-23T22:14:00.232Z,29.40
2023-02-23T22:16:31.868Z,27.00
2023-02-23T22:19:03.638Z,26.80
2023-02-23T22:21:37.016Z,28.50
2023-02-23T22:24:05.590Z,25.10
2023-02-23T22:26:34.618Z,28.40
2023-02-23T22:29:02.009Z,24.10
2023-02-23T22:31:29.224Z,27.40
2023-02-23T22:33:56.933Z,25.10
2023-02-23T22:36:24.317Z,27.20
2023-02-23T22:38:51.670Z,25.80
2023-02-23T22:41:19.539Z,24.30
2023-02-23T22:43:47.268Z,28.40
2023-02-23T22:46:16.568Z,24.80
2023-02-23T22:48:45.162Z,22.60
2023-02-23T22:51:14.138Z,25.70
2023-02-23T22:53:41.429Z,25.10
2023-02-23T22:56:08.733Z,25.00
2023-02-23T22:58:36.862Z,23.80
2023-02-23T23:01:06.373Z,25.80
2023-02-23T23:03:36.717Z,23.30
2023-02-23T23:06:08.140Z,24.90
2023-02-23T23:08:38.824Z,23.70
2023-02-23T23:11:09.669Z,28.70
2023-02-23T23:13:44.877Z,29.90
2023-02-23T23:16:25.537Z,22.60
2023-02-23T23:19:04.123Z,32.40
2023-02-23T23:21:33.367Z,30.40
2023-02-23T23:24:03.194Z,30.60
2023-02-23T23:26:31.962Z,34.50
2023-02-23T23:29:01.271Z,46.40
2023-02-23T23:31:30.742Z,42.30
2023-02-23T23:34:07.363Z,36.70
2023-02-23T23:36:46.398Z,41.90
2023-02-23T23:39:16.410Z,39.20
2023-02-23T23:41:48.064Z,37.00
2023-02-23T23:44:29.377Z,49.80
2023-02-23T23:46:58.452Z,37.80
2023-02-23T23:49:26.021Z,34.60
2023-02-23T23:51:56.633Z,37.30
2023-02-23T23:54:27.407Z,43.60
2023-02-23T23:56:55.548Z,46.80
2023-02-23T23:59:25.321Z,54.50
